Time;durP1;ratioP1;P1;durP2;ratioP2;P2;SDS_P1;SDS_P2;PMS_P1;PMS_P2;Temp;Humidity;BMP_temperature;BMP_pressure;BME280_temperature;BME280_humidity;BME280_pressure;Samples;Min_cycle;Max_cycle;Signal;HPM_P1;HPM_P2
2021/03/23 00:00:56;;;;;;;25.58;22.15;;;7.90;23.70;9.20;101419.00;;;;5080714;28;20418;-83
2021/03/23 00:03:41;;;;;;;24.37;21.00;;;7.90;23.40;9.20;101420.00;;;;5067562;28;20414;-83
2021/03/23 00:06:13;;;;;;;25.70;21.65;;;7.90;23.30;9.20;101396.00;;;;5079454;28;20505;-83
2021/03/23 00:08:44;;;;;;;25.03;22.33;;;7.80;23.20;9.10;101406.00;;;;5066915;28;20473;-83
2021/03/23 00:11:14;;;;;;;25.13;21.50;;;7.80;23.00;217.30;160599.00;;;;5069202;28;20416;-82
2021/03/23 00:13:45;;;;;;;25.20;22.50;;;7.80;23.60;9.10;101392.00;;;;5078619;28;20421;-82
2021/03/23 00:16:15;;;;;;;25.53;22.83;;;7.70;24.00;9.20;101397.00;;;;5060455;28;20419;-84
2021/03/23 00:18:43;;;;;;;25.95;22.02;;;7.80;24.00;9.30;101404.00;;;;5060184;28;20428;-82
2021/03/23 00:21:11;;;;;;;29.50;23.00;;;7.80;24.00;9.30;101408.00;;;;5069358;28;20422;-83
2021/03/23 00:23:39;;;;;;;26.15;22.48;;;7.90;23.70;9.20;101427.00;;;;5066794;28;20549;-84
2021/03/23 00:26:08;;;;;;;26.08;22.35;;;7.80;23.80;9.30;101406.00;;;;5076095;28;20417;-84
2021/03/23 00:28:36;;;;;;;24.73;21.80;;;7.80;23.90;9.30;101411.00;;;;5080096;28;20431;-83
2021/03/23 00:31:05;;;;;;;27.77;22.73;;;7.80;24.00;9.20;101404.00;;;;5094033;28;20432;-82
2021/03/23 00:33:50;;;;;;;24.45;21.95;;;7.80;24.30;9.30;101413.00;;;;5074249;28;20446;-84
2021/03/23 00:36:23;;;;;;;25.52;22.48;;;7.80;24.20;217.30;160684.00;;;;5082567;28;20498;-83
2021/03/23 00:38:54;;;;;;;25.83;21.20;;;7.80;23.80;9.20;101417.00;;;;5065964;28;20419;-85
2021/03/23 00:41:22;;;;;;;24.58;21.45;;;7.70;24.30;9.20;101409.00;;;;5065406;28;20422;-83
2021/03/23 00:43:50;;;;;;;28.57;21.97;;;7.80;24.60;52.70;160611.00;;;;5082905;28;20425;-83
2021/03/23 00:46:19;;;;;;;27.75;22.50;;;7.80;24.10;9.10;101418.00;;;;5084732;28;20549;-84
2021/03/23 00:48:46;;;;;;;26.00;22.55;;;7.70;24.40;9.00;101421.00;;;;5082885;28;20414;-82
2021/03/23 00:51:14;;;;;;;27.75;22.92;;;7.70;24.70;9.00;101420.00;;;;5066239;28;20912;-83
2021/03/23 00:53:42;;;;;;;26.58;22.85;;;7.60;25.30;9.10;101412.00;;;;5073181;28;20418;-83
2021/03/23 00:56:09;;;;;;;26.90;22.90;;;7.70;25.30;9.10;101418.00;;;;5066141;28;20435;-83
2021/03/23 00:58:37;;;;;;;29.30;23.50;;;7.70;25.50;9.10;101420.00;;;;5083955;28;20421;-84
2021/03/23 01:01:04;;;;;;;27.88;22.90;;;7.70;25.40;9.10;101417.00;;;;5067703;28;20955;-83
2021/03/23 01:03:33;;;;;;;31.33;22.23;;;7.80;24.60;9.10;101411.00;;;;5070228;28;21084;-83
2021/03/23 01:06:00;;;;;;;30.00;23.08;;;7.70;24.70;9.00;101418.00;;;;5084452;28;20430;-84
2021/03/23 01:08:28;;;;;;;26.60;22.50;;;7.70;24.80;9.10;101400.00;;;;5090969;28;20509;-87
2021/03/23 01:10:55;;;;;;;26.80;22.75;;;7.70;25.00;9.10;101410.00;;;;5085417;28;20425;-86
2021/03/23 01:13:23;;;;;;;28.88;22.80;;;7.70;25.00;9.20;101407.00;;;;5082117;28;20459;-82
2021/03/23 01:15:50;;;;;;;27.20;22.40;;;7.70;24.70;9.20;101391.00;;;;5073701;28;20425;-82
2021/03/23 01:18:18;;;;;;;31.40;23.48;;;7.70;24.20;9.30;101404.00;;;;5073589;28;20416;-82
2021/03/23 01:20:46;;;;;;;28.40;23.52;;;7.80;24.70;9.30;101408.00;;;;5077044;28;20422;-82
2021/03/23 01:23:14;;;;;;;30.47;23.10;;;7.80;24.10;9.30;101392.00;;;;5067247;28;20429;-83
2021/03/23 01:25:42;;;;;;;28.02;22.25;;;7.80;23.80;9.30;101396.00;;;;5083628;28;20477;-82
2021/03/23 01:28:10;;;;;;;29.08;22.05;;;7.90;23.30;9.40;101409.00;;;;5076462;28;20471;-82
2021/03/23 01:30:38;;;;;;;29.48;22.17;;;7.90;23.50;9.30;101394.00;;;;5091998;28;20414;-85
2021/03/23 01:33:05;;;;;;;29.60;23.20;;;7.90;23.10;9.30;101395.00;;;;5099782;28;20451;-85
2021/03/23 01:35:33;;;;;;;27.70;22.50;;;7.90;23.10;9.40;101390.00;;;;5085833;28;20432;-84
2021/03/23 01:38:02;;;;;;;27.45;21.85;;;7.90;22.90;9.40;101402.00;;;;5096706;28;20423;-82
2021/03/23 01:40:31;;;;;;;29.48;21.58;;;7.90;22.80;9.40;101403.00;;;;5093978;28;20433;-82
2021/03/23 01:43:02;;;;;;;29.63;21.92;;;8.00;23.10;9.40;101407.00;;;;5111088;28;20414;-83
2021/03/23 01:45:36;;;;;;;26.63;22.50;;;8.00;23.00;9.40;101397.00;;;;5071715;28;20498;-83
2021/03/23 01:48:09;;;;;;;26.95;22.10;;;8.00;22.60;9.40;101398.00;;;;5098113;28;20407;-84
2021/03/23 01:50:36;;;;;;;27.02;22.92;;;8.00;22.40;9.40;101403.00;;;;5085433;28;20444;-84
2021/03/23 01:53:11;;;;;;;25.13;21.47;;;7.90;22.00;9.40;101404.00;;;;5097003;28;20417;-83
2021/03/23 01:55:39;;;;;;;31.35;22.75;;;7.90;22.50;9.40;101398.00;;;;5090278;28;20436;-84
2021/03/23 01:58:09;;;;;;;26.65;21.25;;;7.90;22.50;9.50;101395.00;;;;5086774;28;20446;-85
2021/03/23 02:00:37;;;;;;;27.40;21.45;;;8.00;22.30;9.50;101388.00;;;;5085166;28;20430;-84
2021/03/23 02:03:06;;;;;;;28.65;21.55;;;8.10;22.60;9.50;101398.00;;;;5085271;28;20453;-85
2021/03/23 02:05:34;;;;;;;26.40;21.40;;;8.00;22.00;9.40;101407.00;;;;5085940;28;20498;-84
2021/03/23 02:08:03;;;;;;;26.52;21.90;;;7.90;21.40;9.40;101392.00;;;;5084359;28;20457;-85
2021/03/23 02:10:32;;;;;;;26.45;21.45;;;7.90;21.90;9.40;101401.00;;;;5101270;28;20431;-85
2021/03/23 02:13:02;;;;;;;25.00;20.65;;;7.90;21.90;9.30;101401.00;;;;5084939;28;20435;-84
2021/03/23 02:15:30;;;;;;;26.80;22.00;;;7.90;21.20;9.30;101387.00;;;;5083939;28;20788;-84
2021/03/23 02:18:18;;;;;;;27.35;21.75;;;7.90;21.80;9.30;101389.00;;;;5098989;28;20440;-85
2021/03/23 02:21:04;;;;;;;26.95;20.98;;;7.90;21.60;9.40;101379.00;;;;5081083;28;20453;-85
2021/03/23 02:23:37;;;;;;;27.73;20.85;;;7.90;21.30;9.40;101208.00;;;;5101682;28;21086;-82
2021/03/23 02:26:08;;;;;;;29.27;20.85;;;7.90;21.00;9.40;101374.00;;;;5089458;28;20434;-84
2021/03/23 02:28:42;;;;;;;28.73;21.60;;;7.90;20.50;9.40;101380.00;;;;5073239;28;20426;-84
2021/03/23 02:31:09;;;;;;;23.27;20.25;;;7.90;20.30;9.40;101386.00;;;;5061951;28;20452;-86
2021/03/23 02:33:37;;;;;;;24.38;20.50;;;7.90;19.80;9.40;101375.00;;;;5066026;28;20410;-85
2021/03/23 02:36:07;;;;;;;27.08;20.67;;;7.90;20.30;9.40;101392.00;;;;5085506;28;20420;-85
2021/03/23 02:38:34;;;;;;;25.03;20.70;;;7.90;20.20;9.40;101383.00;;;;5078960;28;20423;-83
2021/03/23 02:41:01;;;;;;;24.67;19.50;;;7.90;19.80;9.30;101375.00;;;;5068792;28;20463;-83
2021/03/23 02:43:29;;;;;;;23.77;19.90;;;7.90;18.70;9.30;101383.00;;;;5080871;28;20437;-85
2021/03/23 02:45:57;;;;;;;27.60;20.33;;;7.80;18.80;9.30;101376.00;;;;5083070;28;20410;-85
2021/03/23 02:48:25;;;;;;;25.17;20.40;;;7.80;19.90;9.30;101385.00;;;;5084040;28;20442;-84
2021/03/23 02:50:54;;;;;;;29.03;21.80;;;7.80;20.10;9.30;101367.00;;;;5101985;28;20423;-85
2021/03/23 02:53:23;;;;;;;24.85;20.08;;;7.80;20.60;9.30;101384.00;;;;5103919;28;20440;-86
2021/03/23 02:55:51;;;;;;;25.95;20.92;;;7.80;19.80;9.40;101371.00;;;;5103611;28;20442;-85
2021/03/23 02:58:18;;;;;;;27.88;20.50;;;7.80;19.40;9.40;101379.00;;;;5093819;28;20397;-83
2021/03/23 03:00:46;;;;;;;26.02;21.88;;;7.90;19.40;9.40;101389.00;;;;5087989;28;20475;-84
2021/03/23 03:03:14;;;;;;;25.80;20.02;;;7.80;19.30;9.40;101381.00;;;;5092814;28;20435;-84
2021/03/23 03:05:52;;;;;;;24.60;19.58;;;7.80;19.20;9.30;101381.00;;;;5090104;28;20549;-83
2021/03/23 03:08:22;;;;;;;29.73;20.80;;;7.80;18.90;9.30;101379.00;;;;5080720;28;20499;-83
2021/03/23 03:10:51;;;;;;;27.17;21.42;;;7.80;19.10;9.40;101402.00;;;;5097553;28;20474;-83
2021/03/23 03:13:21;;;;;;;28.95;20.38;;;7.80;19.00;9.40;101391.00;;;;5080297;28;20427;-83
2021/03/23 03:15:49;;;;;;;23.33;19.05;;;7.90;19.10;9.40;101389.00;;;;5094445;28;20414;-83
2021/03/23 03:18:17;;;;;;;30.10;20.87;;;8.00;19.60;9.50;101391.00;;;;5081202;28;20434;-83
2021/03/23 03:20:45;;;;;;;24.20;20.50;;;8.00;18.90;9.50;101383.00;;;;5096948;28;20410;-85
2021/03/23 03:23:14;;;;;;;22.77;19.40;;;8.00;18.80;9.50;101389.00;;;;5104683;28;20457;-86
2021/03/23 03:25:42;;;;;;;27.02;20.55;;;8.00;18.80;9.40;101386.00;;;;5098286;28;20491;-86
2021/03/23 03:28:10;;;;;;;24.48;19.00;;;7.90;19.00;9.40;101412.00;;;;5075123;28;20420;-84
2021/03/23 03:30:39;;;;;;;23.75;19.05;;;8.00;19.60;9.50;101401.00;;;;5083127;28;20477;-83
2021/03/23 03:33:10;;;;;;;21.17;18.60;;;8.00;18.90;9.50;101395.00;;;;5083885;28;20473;-82
2021/03/23 03:35:41;;;;;;;24.38;18.77;;;8.10;19.20;9.50;101403.00;;;;5068217;28;20454;-83
2021/03/23 03:38:09;;;;;;;22.90;19.10;;;8.00;19.40;9.50;101403.00;;;;5067752;28;20447;-82
2021/03/23 03:40:41;;;;;;;23.55;19.67;;;8.00;19.30;9.40;101387.00;;;;5067250;28;20518;-83
2021/03/23 03:43:11;;;;;;;27.10;20.55;;;8.10;19.20;9.50;101403.00;;;;5066554;28;20510;-84
2021/03/23 03:45:39;;;;;;;26.33;19.55;;;8.00;18.70;9.50;101385.00;;;;5073680;28;20860;-84
2021/03/23 03:48:08;;;;;;;30.65;21.17;;;8.00;19.10;9.50;101399.00;;;;5075876;28;20414;-84
2021/03/23 03:50:36;;;;;;;28.58;20.00;;;8.00;19.50;9.50;101385.00;;;;5076193;28;20449;-85
2021/03/23 03:53:04;;;;;;;23.37;18.60;;;8.00;20.20;9.60;101393.00;;;;5093947;28;20414;-85
2021/03/23 03:55:35;;;;;;;23.42;18.75;;;8.10;21.00;9.50;101399.00;;;;5086579;28;20418;-84
2021/03/23 03:58:03;;;;;;;25.05;18.63;;;8.10;20.70;9.50;101400.00;;;;5087948;28;20413;-83
2021/03/23 04:00:32;;;;;;;27.55;20.02;;;8.10;21.00;9.50;101380.00;;;;5093334;28;20430;-84
2021/03/23 04:03:04;;;;;;;29.17;21.10;;;8.00;20.50;9.50;101383.00;;;;5093657;28;20427;-85
2021/03/23 04:05:35;;;;;;;33.20;20.27;;;8.00;21.60;9.50;101401.00;;;;5107527;28;20453;-85
2021/03/23 04:08:04;;;;;;;29.77;20.73;;;8.00;21.30;9.50;101391.00;;;;5095132;28;20415;-85
2021/03/23 04:10:31;;;;;;;30.88;20.60;;;8.00;22.00;9.50;101401.00;;;;5101108;28;20462;-84
2021/03/23 04:12:59;;;;;;;29.00;20.75;;;8.00;22.00;9.50;101393.00;;;;5105786;28;20439;-85
2021/03/23 04:15:29;;;;;;;27.92;20.85;;;8.00;22.00;9.40;101399.00;;;;5097868;28;20433;-85
2021/03/23 04:17:58;;;;;;;29.90;20.23;;;7.90;19.90;9.40;101381.00;;;;5110428;28;20487;-85
2021/03/23 04:20:26;;;;;;;26.63;20.80;;;8.00;20.70;9.40;101391.00;;;;5092193;28;20427;-85
2021/03/23 04:22:55;;;;;;;23.98;19.77;;;8.10;20.20;9.40;101393.00;;;;5097520;28;20427;-85
2021/03/23 04:25:26;;;;;;;26.07;21.00;;;8.10;17.80;9.40;101393.00;;;;5110153;28;20500;-83
2021/03/23 04:27:54;;;;;;;23.10;20.17;;;7.90;17.40;9.30;101387.00;;;;5092899;28;20414;-83
2021/03/23 04:30:23;;;;;;;27.35;20.90;;;7.80;16.80;9.30;101386.00;;;;5073937;28;20432;-83
2021/03/23 04:32:55;;;;;;;23.75;20.00;;;7.80;16.30;9.30;101387.00;;;;5091170;28;20833;-82
2021/03/23 04:35:27;;;;;;;24.10;20.00;;;7.80;16.10;9.20;101393.00;;;;5076093;28;20432;-83
2021/03/23 04:37:56;;;;;;;23.30;20.80;;;7.80;15.90;9.20;101405.00;;;;5074158;28;20406;-83
2021/03/23 04:40:23;;;;;;;24.15;21.27;;;7.80;14.90;9.20;101387.00;;;;5078838;28;20407;-84
2021/03/23 04:42:51;;;;;;;23.10;20.60;;;7.80;14.40;9.20;101390.00;;;;5085985;28;20436;-83
2021/03/23 04:45:19;;;;;;;23.95;21.45;;;7.70;14.00;9.20;101396.00;;;;5087866;28;20844;-85
2021/03/23 04:47:48;;;;;;;24.35;21.25;;;7.70;14.00;9.10;101391.00;;;;5094972;28;20423;-85
2021/03/23 04:50:18;;;;;;;25.70;22.27;;;7.80;14.40;9.10;101398.00;;;;5088224;28;20481;-85
2021/03/23 04:52:47;;;;;;;26.00;21.75;;;7.70;13.90;9.10;101393.00;;;;5072586;28;20415;-83
2021/03/23 04:55:16;;;;;;;29.30;23.27;;;7.80;14.00;9.10;68279.00;;;;5088129;28;20460;-84
2021/03/23 04:57:44;;;;;;;27.58;22.17;;;7.70;13.80;9.10;101410.00;;;;5067203;28;20442;-82
2021/03/23 05:00:16;;;;;;;28.55;22.60;;;7.70;13.70;9.20;101398.00;;;;5082182;28;20522;-83
2021/03/23 05:02:43;;;;;;;28.77;22.88;;;7.70;13.70;9.20;101415.00;;;;5089423;28;20500;-85
2021/03/23 05:05:12;;;;;;;27.55;23.40;;;7.70;13.50;9.20;101406.00;;;;5090103;28;20422;-85
2021/03/23 05:07:39;;;;;;;25.67;22.75;;;7.70;13.30;9.10;101410.00;;;;5089513;28;20406;-84
2021/03/23 05:10:11;;;;;;;28.53;23.33;;;7.70;13.50;9.10;101408.00;;;;5067131;28;20500;-83
2021/03/23 05:12:39;;;;;;;28.70;23.90;;;7.70;13.20;9.10;101397.00;;;;5066266;28;20498;-84
2021/03/23 05:15:10;;;;;;;29.98;22.90;;;7.70;13.20;9.10;101417.00;;;;5080384;28;20472;-84
2021/03/23 05:17:37;;;;;;;29.02;23.38;;;7.70;13.50;9.20;101407.00;;;;5063176;28;21206;-84
2021/03/23 05:20:08;;;;;;;33.03;24.90;;;7.80;13.60;9.20;101414.00;;;;5068486;28;21106;-86
2021/03/23 05:22:35;;;;;;;31.90;24.40;;;7.80;13.60;9.20;101402.00;;;;5063444;28;20506;-84
2021/03/23 05:25:05;;;;;;;31.58;24.05;;;7.80;13.30;9.20;101412.00;;;;5078659;28;20991;-84
2021/03/23 05:27:33;;;;;;;30.47;24.53;;;7.80;13.50;9.20;101404.00;;;;5059917;28;20596;-84
2021/03/23 05:30:01;;;;;;;29.45;24.00;;;7.70;13.50;9.20;101414.00;;;;5058510;28;20412;-84
2021/03/23 05:32:28;;;;;;;32.43;26.43;;;7.80;13.30;9.20;101409.00;;;;5060465;28;20451;-83
2021/03/23 05:34:56;;;;;;;34.87;27.70;;;7.80;13.60;9.20;101411.00;;;;5062045;28;20426;-85
2021/03/23 05:37:40;;;;;;;30.13;25.00;;;7.70;13.70;9.20;101424.00;;;;5060988;28;20487;-82
2021/03/23 05:40:09;;;;;;;34.47;26.23;;;7.80;13.90;9.30;101435.00;;;;5077609;28;20983;-83
2021/03/23 05:42:41;;;;;;;32.65;25.50;;;7.80;13.80;9.30;101426.00;;;;5078373;28;20426;-84
2021/03/23 05:45:18;;;;;;;31.83;25.38;;;7.80;13.60;9.30;68323.00;;;;5073411;28;20497;-84
2021/03/23 05:48:05;;;;;;;28.77;23.67;;;7.80;13.60;9.30;101430.00;;;;5060662;28;20530;-84
2021/03/23 05:50:35;;;;;;;28.02;23.95;;;7.80;13.60;9.20;101438.00;;;;5063606;28;20447;-84
2021/03/23 05:53:08;;;;;;;35.20;24.80;;;7.80;13.90;9.20;101438.00;;;;5080984;28;20418;-85
2021/03/23 05:55:41;;;;;;;33.43;25.17;;;7.80;14.40;9.30;101451.00;;;;5063899;28;20419;-84
2021/03/23 05:58:20;;;;;;;33.40;25.20;;;7.80;14.60;9.40;101429.00;;;;5062603;28;20408;-84
2021/03/23 06:00:58;;;;;;;33.25;24.80;;;7.90;14.90;9.40;101451.00;;;;5074511;28;20416;-83
2021/03/23 06:03:30;;;;;;;31.17;24.17;;;7.90;14.40;9.30;101461.00;;;;5062404;28;20536;-82
2021/03/23 06:06:06;;;;;;;33.75;25.70;;;7.90;14.10;9.40;101449.00;;;;5089846;28;20503;-82
2021/03/23 06:08:36;;;;;;;33.25;25.30;;;7.90;14.40;9.30;101455.00;;;;5071106;28;20415;-84
2021/03/23 06:11:50;;;;;;;34.67;26.20;;;7.90;14.50;9.30;101456.00;;;;5063947;28;20450;-85
2021/03/23 06:14:48;;;;;;;36.40;26.02;;;7.90;14.50;9.30;101462.00;;;;4985985;28;20465;-84
2021/03/23 06:17:30;;;;;;;34.25;25.60;;;7.90;14.50;9.20;101451.00;;;;5073505;28;20546;-83
2021/03/23 06:20:28;;;;;;;32.97;25.90;;;7.80;14.70;9.20;101448.00;;;;5074467;28;20461;-84
2021/03/23 06:23:24;;;;;;;33.30;25.73;;;7.80;14.20;9.20;101452.00;;;;5062321;28;20502;-85
2021/03/23 06:26:00;;;;;;;37.10;28.67;;;7.80;14.70;9.40;101461.00;;;;5081282;28;20483;-82
2021/03/23 06:28:53;;;;;;;31.60;26.70;;;7.90;15.00;9.50;101466.00;;;;5060721;28;20418;-82
2021/03/23 06:31:55;;;;;;;38.40;27.73;;;8.00;14.80;9.50;101452.00;;;;5060409;28;21193;-85
2021/03/23 06:34:27;;;;;;;33.35;25.67;;;8.00;14.40;9.50;101449.00;;;;5066212;28;20421;-83
2021/03/23 06:36:55;;;;;;;32.38;25.80;;;8.00;14.00;9.50;101462.00;;;;5072463;28;20431;-84
2021/03/23 06:39:24;;;;;;;32.80;27.10;;;8.00;13.70;9.50;101462.00;;;;5062029;28;20415;-84
2021/03/23 06:41:58;;;;;;;33.45;26.40;;;8.00;13.70;9.50;101460.00;;;;5063331;28;20422;-84
2021/03/23 06:44:31;;;;;;;32.63;27.13;;;8.00;13.70;9.60;101458.00;;;;5063771;28;20465;-82
2021/03/23 06:47:00;;;;;;;34.35;26.98;;;8.00;13.80;9.60;101472.00;;;;5062030;28;20438;-84
2021/03/23 06:49:35;;;;;;;32.65;25.95;;;8.10;14.40;9.70;101464.00;;;;5062637;28;20419;-85
2021/03/23 06:52:20;;;;;;;31.05;25.48;;;8.30;14.50;9.80;101458.00;;;;5071828;28;20423;-83
2021/03/23 06:55:22;;;;;;;36.08;28.00;;;8.30;13.30;9.80;101463.00;;;;5084982;28;20501;-84
2021/03/23 06:57:50;;;;;;;38.15;27.02;;;8.30;13.60;9.80;101470.00;;;;5084002;28;20447;-84
2021/03/23 07:00:33;;;;;;;35.20;27.70;;;8.30;13.60;9.80;101472.00;;;;5076806;28;20484;-84
2021/03/23 07:03:15;;;;;;;33.88;27.33;;;8.30;13.40;9.80;101470.00;;;;5097388;28;20447;-85
2021/03/23 07:05:45;;;;;;;34.65;27.20;;;8.30;13.30;9.80;101478.00;;;;5107622;28;20432;-82
2021/03/23 07:08:24;;;;;;;36.50;28.33;;;8.30;13.60;217.30;160944.00;;;;5067601;28;20422;-83
2021/03/23 07:11:08;;;;;;;35.33;28.50;;;8.30;13.30;10.00;101481.00;;;;5064761;28;20418;-83
2021/03/23 07:13:40;;;;;;;44.78;29.27;;;8.40;13.60;10.10;101483.00;;;;5071425;28;20431;-84
2021/03/23 07:16:29;;;;;;;41.53;29.60;;;8.50;13.70;10.20;101484.00;;;;5078470;28;20454;-84
2021/03/23 07:19:11;;;;;;;34.13;28.95;;;8.50;12.80;10.20;101490.00;;;;5078486;28;20410;-83
2021/03/23 07:21:46;;;;;;;37.25;29.48;;;8.60;12.60;10.20;101478.00;;;;5100141;28;20425;-84
2021/03/23 07:24:19;;;;;;;39.20;30.08;;;8.60;11.90;10.10;101489.00;;;;5075854;28;20430;-81
2021/03/23 07:26:59;;;;;;;40.35;30.95;;;8.50;11.90;10.20;101488.00;;;;5091264;28;20412;-84
2021/03/23 07:29:32;;;;;;;42.07;30.17;;;8.60;11.60;10.30;101500.00;;;;5084987;28;20414;-84
2021/03/23 07:32:15;;;;;;;38.92;30.33;;;8.60;11.90;10.30;101491.00;;;;5075076;28;20424;-84
2021/03/23 07:35:00;;;;;;;44.08;32.03;;;8.70;11.70;10.30;101513.00;;;;5064539;28;20423;-84
2021/03/23 07:37:40;;;;;;;44.08;31.63;;;8.70;11.80;10.40;101505.00;;;;5064506;28;20473;-84
2021/03/23 07:40:28;;;;;;;41.80;30.93;;;8.70;11.60;10.40;101499.00;;;;5059976;28;20454;-82
2021/03/23 07:43:43;;;;;;;42.67;32.25;;;8.70;11.40;10.50;101510.00;;;;5064407;28;20418;-83
2021/03/23 07:46:17;;;;;;;44.55;32.53;;;8.80;11.00;217.30;161247.00;;;;5061045;28;20435;-84
2021/03/23 07:48:53;;;;;;;40.42;32.20;;;8.90;10.90;10.50;101526.00;;;;5062735;28;20441;-84
2021/03/23 07:51:32;;;;;;;43.00;33.20;;;8.90;9.90;10.50;68589.00;;;;5078401;28;20448;-85
2021/03/23 07:54:25;;;;;;;39.15;31.27;;;8.80;9.60;10.40;101536.00;;;;5069659;28;20828;-84
2021/03/23 07:57:18;;;;;;;35.53;29.38;;;8.80;10.00;10.40;101517.00;;;;5068974;28;20424;-84
2021/03/23 08:00:16;;;;;;;39.15;31.20;;;8.80;9.30;10.20;101508.00;;;;5065816;28;20416;-85
2021/03/23 08:03:33;;;;;;;35.60;29.47;;;8.70;9.30;10.20;101533.00;;;;5088846;28;20508;-83
2021/03/23 08:06:14;;;;;;;34.30;27.50;;;8.70;9.10;10.20;68521.00;;;;5065965;28;20461;-84
2021/03/23 08:09:19;;;;;;;34.97;27.95;;;8.70;9.00;10.20;101530.00;;;;5070879;28;20449;-82
2021/03/23 08:11:55;;;;;;;35.22;28.48;;;8.70;9.60;10.20;101541.00;;;;5072331;28;20416;-85
2021/03/23 08:15:08;;;;;;;37.93;28.80;;;8.70;9.20;217.30;161124.00;;;;5072053;28;20583;-84
2021/03/23 08:18:14;;;;;;;41.58;29.58;;;8.70;9.20;217.30;161190.00;;;;5067294;28;20424;-83
2021/03/23 08:21:19;;;;;;;38.38;29.38;;;8.80;9.40;10.60;101534.00;;;;5065370;28;20424;-84
2021/03/23 08:24:03;;;;;;;43.08;29.92;;;9.00;9.20;10.60;101547.00;;;;5079673;28;20410;-83
2021/03/23 08:26:52;;;;;;;37.20;29.20;;;9.00;8.90;10.70;101538.00;;;;5081738;28;21105;-85
2021/03/23 08:29:28;;;;;;;37.50;28.00;;;9.00;8.90;10.70;101531.00;;;;5077707;28;20422;-85
2021/03/23 08:32:23;;;;;;;34.15;27.33;;;9.10;8.70;10.60;101537.00;;;;5077365;28;20429;-85
2021/03/23 08:35:24;;;;;;;35.28;27.45;;;9.00;8.70;10.50;101534.00;;;;5084334;28;20684;-83
2021/03/23 08:38:14;;;;;;;35.30;26.90;;;9.00;8.50;10.40;101545.00;;;;5084173;28;20422;-82
2021/03/23 08:40:53;;;;;;;34.65;25.85;;;8.90;8.50;10.30;101539.00;;;;5074774;28;20948;-85
2021/03/23 08:43:33;;;;;;;35.70;26.85;;;8.80;8.70;10.40;101548.00;;;;5070021;28;20432;-83
2021/03/23 08:46:06;;;;;;;35.70;26.98;;;8.80;9.00;10.40;101549.00;;;;5075347;28;20418;-84
2021/03/23 08:48:44;;;;;;;37.75;26.90;;;8.90;9.10;10.50;101558.00;;;;5064383;28;20424;-85
2021/03/23 08:51:18;;;;;;;36.50;27.88;;;8.90;8.70;10.60;101541.00;;;;5062048;28;20419;-85
2021/03/23 08:53:56;;;;;;;34.87;27.37;;;8.90;8.20;10.80;101541.00;;;;5062203;28;20432;-84
2021/03/23 08:57:00;;;;;;;33.55;26.63;;;9.10;8.80;10.90;101538.00;;;;5066360;28;20426;-82
2021/03/23 08:59:56;;;;;;;34.80;27.45;;;9.20;7.80;11.00;101543.00;;;;5067038;28;20423;-85
2021/03/23 09:02:48;;;;;;;33.40;26.13;;;9.30;7.40;11.10;101543.00;;;;5075937;28;20411;-82
2021/03/23 09:05:57;;;;;;;42.60;30.42;;;9.40;7.20;11.00;101542.00;;;;5069540;28;20447;-82
2021/03/23 09:08:45;;;;;;;34.45;28.20;;;9.40;6.90;10.90;101538.00;;;;5061172;28;20910;-82
2021/03/23 09:11:56;;;;;;;35.17;29.00;;;9.30;7.00;10.80;101536.00;;;;5094072;28;20425;-83
2021/03/23 09:14:26;;;;;;;37.38;29.20;;;9.20;6.80;11.00;101545.00;;;;5069330;28;20431;-84
2021/03/23 09:17:37;;;;;;;35.88;29.17;;;9.30;7.20;11.30;101547.00;;;;5074134;28;20818;-83
2021/03/23 09:20:53;;;;;;;34.30;30.15;;;9.50;6.60;11.50;101530.00;;;;5072357;28;20451;-83
2021/03/23 09:23:53;;;;;;;37.03;29.67;;;9.70;6.00;11.90;101531.00;;;;5025334;28;20504;-83
2021/03/23 09:26:49;;;;;;;36.65;29.42;;;9.90;6.00;12.10;101539.00;;;;5102425;28;20429;-84
2021/03/23 09:29:42;;;;;;;35.63;29.75;;;10.10;4.20;12.20;101533.00;;;;5102936;28;20406;-84
2021/03/23 09:32:15;;;;;;;39.78;31.50;;;10.30;3.50;12.20;101530.00;;;;5082436;28;20413;-83
2021/03/23 09:35:20;;;;;;;40.33;31.57;;;10.30;3.50;12.00;101531.00;;;;5107368;28;20533;-82
2021/03/23 09:38:26;;;;;;;55.40;32.70;;;10.20;2.70;11.80;101533.00;;;;5092061;28;20423;-83
2021/03/23 09:41:00;;;;;;;50.50;32.00;;;10.00;3.70;11.90;101528.00;;;;5086281;28;20424;-83
2021/03/23 09:43:36;;;;;;;37.38;30.58;;;9.90;4.70;11.90;101527.00;;;;5080426;28;20418;-83
2021/03/23 09:46:36;;;;;;;39.35;32.20;;;10.00;3.70;217.30;161878.00;;;;5085838;28;20959;-83
2021/03/23 09:49:17;;;;;;;36.17;29.95;;;10.10;3.50;12.00;101519.00;;;;5095693;28;20416;-83
2021/03/23 09:51:54;;;;;;;36.13;29.70;;;10.20;2.30;11.80;101521.00;;;;5087762;28;20503;-82
2021/03/23 09:54:28;;;;;;;35.65;30.23;;;10.00;2.00;11.80;101532.00;;;;5075489;28;20431;-82
2021/03/23 09:57:01;;;;;;;56.38;32.10;;;10.00;2.30;11.90;101519.00;;;;5140983;23;20420;-85
2021/03/23 09:59:52;;;;;;;36.23;29.43;;;10.00;2.00;12.00;68926.00;;;;5108048;28;20426;-86
2021/03/23 10:02:27;;;;;;;35.10;28.38;;;10.10;1.90;12.30;101525.00;;;;5109522;28;20433;-85
2021/03/23 10:04:55;;;;;;;37.03;29.20;;;10.30;1.70;12.50;101528.00;;;;5123425;28;20384;-85
2021/03/23 10:07:29;;;;;;;33.88;28.67;;;10.50;1.40;12.70;101511.00;;;;5090847;28;20402;-86
2021/03/23 10:10:10;;;;;;;33.47;29.10;;;10.60;1.20;12.80;101523.00;;;;5106956;28;20429;-83
2021/03/23 10:12:40;;;;;;;31.67;28.27;;;10.70;1.20;12.60;101517.00;;;;5113040;28;20473;-84
2021/03/23 10:15:31;;;;;;;32.13;27.98;;;10.70;1.00;12.50;101523.00;;;;5101679;28;20405;-83
2021/03/23 10:18:14;;;;;;;35.08;28.95;;;10.50;1.00;12.30;101501.00;;;;5115102;28;20417;-84
2021/03/23 10:20:42;;;;;;;33.70;28.88;;;10.40;1.00;12.30;101503.00;;;;5112341;28;20409;-85
2021/03/23 10:23:11;;;;;;;31.52;28.13;;;10.40;1.00;12.30;101510.00;;;;5104491;28;20409;-87
2021/03/23 10:25:42;;;;;;;32.22;28.83;;;10.40;1.00;12.20;101513.00;;;;5136801;28;20426;-85
2021/03/23 10:28:24;;;;;;;32.10;27.70;;;10.50;1.00;12.10;101516.00;;;;5100247;28;20514;-82
2021/03/23 10:30:59;;;;;;;36.97;29.00;;;10.30;1.00;12.10;101527.00;;;;5084448;28;20404;-82
2021/03/23 10:33:31;;;;;;;34.10;28.93;;;10.20;1.00;12.20;101524.00;;;;5098709;28;20514;-81
2021/03/23 10:36:03;;;;;;;34.03;27.90;;;10.20;1.00;12.30;101521.00;;;;5095732;28;20515;-83
2021/03/23 10:38:44;;;;;;;31.17;27.27;;;10.40;1.00;12.40;101508.00;;;;5093549;28;20428;-83
2021/03/23 10:41:34;;;;;;;32.88;27.83;;;10.40;1.00;12.50;101511.00;;;;5092972;28;20427;-84
2021/03/23 10:44:26;;;;;;;31.50;26.90;;;10.50;1.00;12.50;101510.00;;;;5096220;28;20428;-83
2021/03/23 10:46:55;;;;;;;32.43;27.70;;;10.50;1.00;12.50;101520.00;;;;5100316;28;20521;-87
2021/03/23 10:49:36;;;;;;;31.50;28.10;;;10.50;1.00;12.30;101518.00;;;;5097427;28;20415;-83
2021/03/23 10:52:23;;;;;;;32.13;27.60;;;10.50;1.00;12.30;101517.00;;;;5117283;28;20420;-85
2021/03/23 10:55:11;;;;;;;34.20;28.35;;;10.40;1.00;12.20;101514.00;;;;5098629;28;20429;-82
2021/03/23 10:57:39;;;;;;;31.15;26.75;;;10.40;1.00;12.20;68959.00;;;;5097587;28;20421;-86
2021/03/23 11:00:30;;;;;;;29.08;25.88;;;10.30;1.00;12.20;101519.00;;;;5098484;28;20423;-84
2021/03/23 11:03:14;;;;;;;33.67;27.48;;;10.30;1.00;12.20;101500.00;;;;5097183;28;20422;-82
2021/03/23 11:05:46;;;;;;;31.42;27.55;;;10.30;1.00;12.20;101517.00;;;;5103625;28;20417;-86
2021/03/23 11:08:16;;;;;;;33.45;29.20;;;10.30;1.00;12.20;101501.00;;;;5102515;28;20406;-85
2021/03/23 11:10:45;;;;;;;34.80;28.52;;;10.50;1.00;12.00;101502.00;;;;5096654;28;20421;-81
2021/03/23 11:13:15;;;;;;;31.00;27.70;;;10.30;1.00;12.20;101517.00;;;;5100236;28;20402;-85
2021/03/23 11:15:44;;;;;;;31.35;27.02;;;10.40;1.00;12.20;101502.00;;;;5106839;28;20417;-85
2021/03/23 11:18:17;;;;;;;32.47;26.87;;;10.40;1.00;12.20;101506.00;;;;5108810;28;20974;-84
2021/03/23 11:20:48;;;;;;;31.42;28.02;;;10.40;1.00;12.30;101500.00;;;;5090243;28;20477;-83
2021/03/23 11:23:31;;;;;;;30.10;26.65;;;10.40;1.00;12.40;101489.00;;;;5107197;28;20447;-83